VIR280 EGLL-FMMI
Flight info
| Callsign | VIR280 |
|---|---|
| Flight time | N/A |
| Altitude | 33000 |
| Route | MAXIT Y803 MID UL612 RESMI UM728 KETEX DCT ADEKA DCT FJR UM731 DIVKO DCT AGAKI Z16 SOSUR DCT BALEN/N0488F350 DCT KAMER UM998 CSO UA605 DJA UB730 DIR UG862 BURAT/N0495F370 UG862 BUN/N0492F380 UT325 SIPKI/N0496F370 UW325 NN UA401 BETAF/N0489F390 UA401 TN TN2B |
| Aircraft | A35K/H-SDE2E3GHIJ3J4J5LM1ORWXY/LB1D1 |
Departure
| Time | N/A |
|---|---|
| Airport | London Heathrow Airport (EGLL) |
Arrival
| Time | 2026-04-18 06:37 |
|---|---|
| Airport | Ivato International Airport (FMMI) |
| Time | Latitude | Longitude | Altitude | Speed | Heading |
|---|---|---|---|---|---|
| 2026-04-18 05:36 | -14.07257 | 45.05813 | 38996 ft | 482 kts | 145° |
| 2026-04-18 05:37 | -14.11669 | 45.09350 | 38995 ft | 482 kts | 145° |
| 2026-04-18 05:37 | -14.16959 | 45.13594 | 38996 ft | 482 kts | 145° |
| 2026-04-18 05:38 | -14.22247 | 45.17839 | 38998 ft | 482 kts | 145° |
| 2026-04-18 05:38 | -14.27511 | 45.22066 | 38996 ft | 482 kts | 145° |
| 2026-04-18 05:39 | -14.32812 | 45.26327 | 38996 ft | 482 kts | 145° |
| 2026-04-18 05:39 | -14.38111 | 45.30588 | 38996 ft | 482 kts | 145° |
| 2026-04-18 05:40 | -14.43386 | 45.34832 | 38997 ft | 482 kts | 145° |
| 2026-04-18 05:40 | -14.48676 | 45.39092 | 38997 ft | 482 kts | 145° |
| 2026-04-18 05:41 | -14.53941 | 45.43334 | 38999 ft | 482 kts | 145° |
| 2026-04-18 05:41 | -14.59245 | 45.47610 | 38995 ft | 483 kts | 145° |
| 2026-04-18 05:42 | -14.64512 | 45.51858 | 38998 ft | 483 kts | 145° |
| 2026-04-18 05:42 | -14.69815 | 45.56139 | 38989 ft | 483 kts | 145° |
| 2026-04-18 05:43 | -14.75092 | 45.60401 | 39004 ft | 483 kts | 145° |
| 2026-04-18 05:43 | -14.80394 | 45.64686 | 39003 ft | 483 kts | 145° |
| 2026-04-18 05:44 | -14.85679 | 45.68961 | 38991 ft | 483 kts | 145° |
| 2026-04-18 05:44 | -14.90957 | 45.73231 | 39005 ft | 483 kts | 145° |
| 2026-04-18 05:45 | -14.96278 | 45.77540 | 38996 ft | 484 kts | 145° |
| 2026-04-18 05:45 | -15.01551 | 45.81813 | 38993 ft | 484 kts | 145° |
| 2026-04-18 05:46 | -15.06840 | 45.86101 | 38997 ft | 484 kts | 145° |
| 2026-04-18 05:46 | -15.12146 | 45.90406 | 38993 ft | 484 kts | 145° |
| 2026-04-18 05:47 | -15.17431 | 45.94697 | 38990 ft | 484 kts | 145° |
| 2026-04-18 05:47 | -15.22744 | 45.99013 | 38997 ft | 485 kts | 145° |
| 2026-04-18 05:48 | -15.28029 | 46.03309 | 38997 ft | 485 kts | 145° |
| 2026-04-18 05:48 | -15.33336 | 46.07626 | 39000 ft | 485 kts | 145° |
| 2026-04-18 05:49 | -15.38651 | 46.11953 | 39000 ft | 485 kts | 145° |
| 2026-04-18 05:49 | -15.43949 | 46.16269 | 39007 ft | 485 kts | 145° |
| 2026-04-18 05:50 | -15.49235 | 46.20577 | 39016 ft | 485 kts | 145° |
| 2026-04-18 05:50 | -15.54553 | 46.24915 | 39016 ft | 485 kts | 145° |
| 2026-04-18 05:51 | -15.59842 | 46.29232 | 39023 ft | 486 kts | 145° |
| 2026-04-18 05:51 | -15.65343 | 46.33266 | 39021 ft | 480 kts | 155° |
| 2026-04-18 05:52 | -15.71510 | 46.35743 | 39024 ft | 474 kts | 166° |
| 2026-04-18 05:52 | -15.77841 | 46.37605 | 39017 ft | 474 kts | 168° |
| 2026-04-18 05:53 | -15.84202 | 46.39386 | 39021 ft | 474 kts | 168° |
| 2026-04-18 05:53 | -15.90582 | 46.41191 | 39016 ft | 475 kts | 168° |
| 2026-04-18 05:54 | -15.96956 | 46.43017 | 39015 ft | 475 kts | 168° |
| 2026-04-18 05:54 | -16.03311 | 46.44846 | 39018 ft | 475 kts | 167° |
| 2026-04-18 05:55 | -16.09699 | 46.46686 | 39016 ft | 475 kts | 168° |
| 2026-04-18 05:55 | -16.16039 | 46.48513 | 39019 ft | 475 kts | 168° |
| 2026-04-18 05:56 | -16.22401 | 46.50346 | 39016 ft | 475 kts | 168° |
| 2026-04-18 05:56 | -16.28790 | 46.52189 | 39018 ft | 475 kts | 168° |
| 2026-04-18 05:57 | -16.38318 | 46.54939 | 39024 ft | 475 kts | 168° |
| 2026-04-18 05:58 | -16.44699 | 46.56782 | 39028 ft | 475 kts | 168° |
| 2026-04-18 05:58 | -16.51033 | 46.58614 | 39031 ft | 475 kts | 168° |
| 2026-04-18 05:59 | -16.57412 | 46.60459 | 39034 ft | 475 kts | 168° |
| 2026-04-18 05:59 | -16.61923 | 46.61765 | 39033 ft | 475 kts | 168° |
| 2026-04-18 06:14 | -16.67924 | 46.63502 | 39041 ft | 475 kts | 168° |
| 2026-04-18 06:15 | -16.74269 | 46.65341 | 39041 ft | 476 kts | 168° |
| 2026-04-18 06:15 | -16.80643 | 46.67190 | 39045 ft | 476 kts | 168° |
| 2026-04-18 06:16 | -16.87039 | 46.69046 | 39042 ft | 476 kts | 168° |
| 2026-04-18 06:16 | -16.93402 | 46.70894 | 39050 ft | 476 kts | 168° |
| 2026-04-18 06:17 | -16.99796 | 46.72752 | 38941 ft | 476 kts | 168° |
| 2026-04-18 06:17 | -17.02988 | 46.73681 | 38722 ft | 475 kts | 168° |
| 2026-04-18 06:17 | -17.06145 | 46.74600 | 38458 ft | 475 kts | 168° |
| 2026-04-18 06:17 | -17.09336 | 46.75528 | 38193 ft | 475 kts | 167° |
| 2026-04-18 06:18 | -17.12501 | 46.76449 | 37933 ft | 476 kts | 167° |
| 2026-04-18 06:18 | -17.15711 | 46.77383 | 37674 ft | 477 kts | 167° |
| 2026-04-18 06:18 | -17.18919 | 46.78317 | 37413 ft | 478 kts | 167° |
| 2026-04-18 06:18 | -17.22094 | 46.79242 | 37177 ft | 478 kts | 167° |
| 2026-04-18 06:19 | -17.25312 | 46.80182 | 36720 ft | 475 kts | 167° |
| 2026-04-18 06:19 | -17.28506 | 46.81114 | 36123 ft | 475 kts | 167° |
| 2026-04-18 06:19 | -17.31652 | 46.82031 | 35486 ft | 475 kts | 167° |
| 2026-04-18 06:19 | -17.34856 | 46.82965 | 34816 ft | 477 kts | 167° |
| 2026-04-18 06:20 | -17.38063 | 46.83900 | 34062 ft | 480 kts | 167° |
| 2026-04-18 06:20 | -17.41300 | 46.84843 | 33217 ft | 483 kts | 167° |
| 2026-04-18 06:20 | -17.44518 | 46.85782 | 32439 ft | 485 kts | 167° |
| 2026-04-18 06:20 | -17.47787 | 46.86738 | 31637 ft | 488 kts | 166° |
| 2026-04-18 06:21 | -17.51053 | 46.87694 | 30822 ft | 491 kts | 166° |
| 2026-04-18 06:21 | -17.54363 | 46.88662 | 29921 ft | 495 kts | 166° |
| 2026-04-18 06:21 | -17.57691 | 46.89636 | 29167 ft | 495 kts | 166° |
| 2026-04-18 06:21 | -17.61013 | 46.90609 | 28501 ft | 491 kts | 166° |
| 2026-04-18 06:22 | -17.64256 | 46.91560 | 27872 ft | 488 kts | 166° |
| 2026-04-18 06:22 | -17.67528 | 46.92520 | 27248 ft | 485 kts | 166° |
| 2026-04-18 06:22 | -17.70784 | 46.93474 | 26609 ft | 482 kts | 166° |
| 2026-04-18 06:22 | -17.74010 | 46.94420 | 25986 ft | 480 kts | 166° |
| 2026-04-18 06:23 | -17.77178 | 46.95349 | 25366 ft | 477 kts | 165° |
| 2026-04-18 06:23 | -17.80375 | 46.96287 | 24748 ft | 475 kts | 165° |
| 2026-04-18 06:23 | -17.83555 | 46.97220 | 24128 ft | 473 kts | 165° |
| 2026-04-18 06:23 | -17.86725 | 46.98150 | 23469 ft | 470 kts | 165° |
| 2026-04-18 06:24 | -17.89833 | 46.99062 | 22816 ft | 466 kts | 165° |
| 2026-04-18 06:24 | -17.92936 | 46.99975 | 22194 ft | 462 kts | 165° |
| 2026-04-18 06:24 | -17.96038 | 47.00889 | 21487 ft | 459 kts | 165° |
| 2026-04-18 06:24 | -17.99087 | 47.01786 | 20850 ft | 455 kts | 165° |
| 2026-04-18 06:25 | -18.02134 | 47.02683 | 20226 ft | 451 kts | 165° |
| 2026-04-18 06:25 | -18.05149 | 47.03570 | 19617 ft | 447 kts | 165° |
| 2026-04-18 06:25 | -18.08112 | 47.04442 | 18999 ft | 444 kts | 164° |
| 2026-04-18 06:25 | -18.11081 | 47.05317 | 18369 ft | 441 kts | 164° |
| 2026-04-18 06:26 | -18.14025 | 47.06185 | 17693 ft | 437 kts | 164° |
| 2026-04-18 06:26 | -18.16937 | 47.07044 | 17054 ft | 432 kts | 164° |
| 2026-04-18 06:26 | -18.19819 | 47.07894 | 16426 ft | 428 kts | 164° |
| 2026-04-18 06:26 | -18.22675 | 47.08737 | 15802 ft | 424 kts | 164° |
| 2026-04-18 06:27 | -18.25499 | 47.09570 | 15174 ft | 420 kts | 164° |
| 2026-04-18 06:27 | -18.28302 | 47.10398 | 14547 ft | 417 kts | 164° |
| 2026-04-18 06:27 | -18.31084 | 47.11220 | 13911 ft | 414 kts | 164° |
| 2026-04-18 06:27 | -18.33735 | 47.11974 | 13236 ft | 411 kts | 166° |
| 2026-04-18 06:28 | -18.36504 | 47.12650 | 12593 ft | 407 kts | 167° |
| 2026-04-18 06:28 | -18.39251 | 47.13305 | 11973 ft | 402 kts | 167° |
| 2026-04-18 06:28 | -18.41944 | 47.13957 | 11686 ft | 389 kts | 166° |
| 2026-04-18 06:28 | -18.44519 | 47.14587 | 11579 ft | 372 kts | 166° |
| 2026-04-18 06:29 | -18.46986 | 47.15194 | 11477 ft | 356 kts | 166° |
| 2026-04-18 06:29 | -18.49232 | 47.15748 | 11351 ft | 343 kts | 166° |
| 2026-04-18 06:29 | -18.51521 | 47.16314 | 11198 ft | 331 kts | 166° |
| 2026-04-18 06:29 | -18.53724 | 47.16860 | 11052 ft | 320 kts | 166° |
| 2026-04-18 06:30 | -18.55852 | 47.17389 | 10902 ft | 309 kts | 166° |
| 2026-04-18 06:30 | -18.57933 | 47.17907 | 10514 ft | 304 kts | 166° |
| 2026-04-18 06:30 | -18.59959 | 47.18411 | 10061 ft | 292 kts | 166° |
| 2026-04-18 06:30 | -18.61879 | 47.18888 | 9792 ft | 274 kts | 166° |
| 2026-04-18 06:31 | -18.63683 | 47.19341 | 9438 ft | 263 kts | 166° |
| 2026-04-18 06:31 | -18.65500 | 47.19792 | 9025 ft | 272 kts | 166° |
| 2026-04-18 06:31 | -18.67341 | 47.20249 | 8678 ft | 271 kts | 166° |
| 2026-04-18 06:31 | -18.69165 | 47.20702 | 8570 ft | 269 kts | 166° |
| 2026-04-18 06:32 | -18.70989 | 47.21156 | 8466 ft | 269 kts | 166° |
| 2026-04-18 06:32 | -18.72745 | 47.21740 | 8364 ft | 262 kts | 155° |
| 2026-04-18 06:32 | -18.74270 | 47.22711 | 8266 ft | 251 kts | 140° |
| 2026-04-18 06:32 | -18.75440 | 47.24023 | 8168 ft | 240 kts | 124° |
| 2026-04-18 06:33 | -18.76214 | 47.25539 | 8109 ft | 227 kts | 110° |
| 2026-04-18 06:33 | -18.76603 | 47.27073 | 8051 ft | 212 kts | 98° |
| 2026-04-18 06:33 | -18.76814 | 47.28580 | 7758 ft | 202 kts | 97° |
| 2026-04-18 06:33 | -18.77017 | 47.29998 | 7385 ft | 194 kts | 98° |
| 2026-04-18 06:34 | -18.77222 | 47.31378 | 7041 ft | 186 kts | 98° |
| 2026-04-18 06:34 | -18.77427 | 47.32741 | 6964 ft | 189 kts | 99° |
| 2026-04-18 06:34 | -18.77636 | 47.34093 | 6720 ft | 184 kts | 99° |
| 2026-04-18 06:34 | -18.77828 | 47.35409 | 6415 ft | 180 kts | 98° |
| 2026-04-18 06:35 | -18.78022 | 47.36695 | 6091 ft | 174 kts | 99° |
| 2026-04-18 06:35 | -18.78211 | 47.37921 | 5856 ft | 165 kts | 99° |
| 2026-04-18 06:35 | -18.78326 | 47.38706 | 5700 ft | 160 kts | 98° |
| 2026-04-18 06:35 | -18.78493 | 47.39834 | 5520 ft | 153 kts | 99° |
| 2026-04-18 06:36 | -18.78715 | 47.41300 | 5274 ft | 152 kts | 99° |
| 2026-04-18 06:36 | -18.78828 | 47.42047 | 5138 ft | 153 kts | 99° |
| 2026-04-18 06:36 | -18.78987 | 47.43144 | 4907 ft | 152 kts | 99° |
| 2026-04-18 06:36 | -18.79151 | 47.44251 | 4684 ft | 152 kts | 99° |
| 2026-04-18 06:37 | -18.79315 | 47.45344 | 4477 ft | 151 kts | 99° |
| 2026-04-18 06:37 | -18.79474 | 47.46444 | 4221 ft | 152 kts | 99° |
| 2026-04-18 06:37 | -18.79621 | 47.47428 | 4145 ft | 125 kts | 99° |
| 2026-04-18 06:37 | -18.79704 | 47.47966 | 4145 ft | 34 kts | 99° |
| 2026-04-18 06:38 | -18.79734 | 47.48083 | 4143 ft | 8 kts | 124° |
| 2026-04-18 06:38 | -18.79786 | 47.48113 | 4144 ft | 8 kts | 174° |
| 2026-04-18 06:38 | -18.79801 | 47.48112 | 4143 ft | 0 kts | 188° |
| 2026-04-18 06:39 | -18.79828 | 47.48108 | 4144 ft | 8 kts | 188° |
| 2026-04-18 06:39 | -18.79887 | 47.48091 | 4142 ft | 8 kts | 212° |
| 2026-04-18 06:40 | -18.79893 | 47.48081 | 4143 ft | 2 kts | 241° |
| 2026-04-18 06:40 | -18.79899 | 47.48037 | 4145 ft | 5 kts | 261° |
| 2026-04-18 06:40 | -18.79921 | 47.48021 | 4147 ft | 4 kts | 188° |
| 2026-04-18 06:40 | -18.79952 | 47.48017 | 4146 ft | 5 kts | 187° |
| 2026-04-18 06:41 | -18.79971 | 47.48014 | 4144 ft | 0 kts | 188° |
| 2026-04-18 06:41 | -18.79979 | 47.48013 | 4142 ft | 0 kts | 188° |
| 2026-04-18 06:41 | -18.79982 | 47.48012 | 4141 ft | 0 kts | 188° |